Beaman, IA (50609)

3:46 PM CDT on September 29, 2016 (GMT -0500)
APRSWXNET | | Change Station

Elev 1040 ft 42.19 °N, 92.82 °W | Updated 26 minutes ago

Clear
Clear
73 °F
Feels Like 77 °F
N
11
Wind Variable Wind from NNE
Gusts 16.0 mph

Today
High -- | Low -- °F
--% Chance of Precip.
Yesterday
High -- | Low -- °F
Precip. -- in
Pressure 30.32 in
Visibility 10.0 miles
Clouds Clear
Heat Index 77 °F
Dew Point 50 °F
Humidity 45%
Rainfall in
Snow Depth Not available.
7:06 AM 6:55 PM
Waning Crescent, 1% visible
METAR KMIW 291953Z AUTO 36011G18KT 10SM CLR 23/10 A3032 RMK AO2 SLP266 T02280100
Pressure 30.32 in
Visibility 10.0 miles
Clouds Clear
Heat Index 77 °F
Dew Point 50 °F
Humidity 45%
Rainfall in
Snow Depth Not available.
7:06 AM 6:55 PM
Waning Crescent, 1% visible
METAR KMIW 291953Z AUTO 36011G18KT 10SM CLR 23/10 A3032 RMK AO2 SLP266 T02280100

10-Day Weather Forecast

Almanac

Astronomy

Sep. 29, 2016 Rise Set
Actual Time
Civil Twilight
Nautical Twilight
Astronomical Twilight
Moon
Length of Visible Light
Length of Day
Tomorrow will be .
, % of the Moon is Illuminated

Today's Extremes

State Highs State Lows

Community

WunderPhotos

Upload Photos

1,942,564 photos uploaded!

WunderBlog® & News

Nearby

Air Quality

  Air Quality AQ Index Pollutant
Not available.

Snow Depth

Station Depth Elevation

Earthquake Activity

City Distance Mag. Time & Date
Minimum magnitude displayed is 2.5.

Coastal Water Temperatures

Place Temperature

Stations

Nearby Weather Stations

Station Location Temp. Windchill Dew Point Humidity Wind Precip. Elev Updated Type
                   

Watches & Warnings

There are currently no watches in effect.